Pelagia — PGRQ — position and weather

sailwx.info

Track history (hours):
 
Tides and Currents Weather Stations Pressure Air Temp Water Temp Dewpoint Dewpoint Depression Visibility Wind Speed Wind Dir Waves Ship Positions

Oceanographic research ship Pelagia (Netherlands)

Detailed information on ship capabilities available from University of Delaware's Ocean Information Center and ARCUS's ALIAS (Arctic Logistics Information and Support) project.

Last reported at 2015-Apr-01 00:33 UTC. Time now 2015-Apr-01 01:15 UTC.
Position N 37°44' W 025°40'.

Length 66 m; beam 13 m.

Type: Other ship. MMSI: 244925000.

Date/timePositionNaut miles runAvg speedWind from/ knotsBaromVisibWave heightAir tempDewpointWater temp
2015-Apr-01 00:33N 37°44' W 025°40'0 0.0
2015-Mar-31 23:32N 37°44' W 025°40'0 0.0
2015-Mar-31 22:32N 37°44' W 025°40'0 0.0
2015-Mar-31 21:29N 37°44' W 025°40'0 0.0
2015-Mar-31 20:32N 37°44' W 025°40'0 0.0
2015-Mar-31 19:32N 37°44' W 025°40'0 0.0
2015-Mar-31 18:32N 37°44' W 025°40'0 0.0
2015-Mar-31 17:32N 37°44' W 025°40'0 0.0
2015-Mar-31 16:32N 37°44' W 025°40'0 0.0
2015-Mar-31 15:32N 37°44' W 025°40'0 0.0
2015-Mar-31 14:32N 37°44' W 025°40'0 0.0
2015-Mar-31 13:32N 37°44' W 025°40'0 0.0
2015-Mar-31 12:32N 37°44' W 025°40'0 0.0
2015-Mar-31 11:32N 37°44' W 025°40'0 0.0
2015-Mar-31 10:32N 37°44' W 025°40'0 0.0
2015-Mar-31 09:32N 37°44' W 025°40'0 0.0
2015-Mar-31 08:32N 37°44' W 025°40'0 0.0
2015-Mar-31 07:32N 37°44' W 025°40'0 0.0
2015-Mar-31 06:32N 37°44' W 025°40'0 0.0
2015-Mar-31 05:32N 37°44' W 025°40'0 0.0
2015-Mar-31 04:32N 37°44' W 025°40'0 0.0
2015-Mar-31 03:32N 37°44' W 025°40'0 0.0
2015-Mar-31 02:32N 37°44' W 025°40'0 0.0
2015-Mar-31 01:32N 37°44' W 025°40'0 0.0
2015-Mar-31 00:32N 37°44' W 025°40'0 0.0
2015-Mar-30 23:32N 37°44' W 025°40'0 0.0
2015-Mar-30 22:32N 37°44' W 025°40'0 0.0
2015-Mar-30 21:32N 37°44' W 025°40'0 0.0
2015-Mar-30 20:32N 37°44' W 025°40'0 0.0
2015-Mar-30 19:32N 37°44' W 025°40'0 0.0
2015-Mar-30 18:32N 37°44' W 025°40'0 0.0
2015-Mar-30 17:32N 37°44' W 025°40'0 0.0
2015-Mar-30 16:32N 37°44' W 025°40'0 0.0
2015-Mar-30 15:31N 37°44' W 025°40'0 0.0
2015-Mar-30 14:32N 37°44' W 025°40'0 0.0
2015-Mar-30 13:32N 37°44' W 025°40'0 0.0
2015-Mar-30 12:31N 37°44' W 025°40'0 0.0
2015-Mar-30 11:32N 37°44' W 025°40'0 0.0
2015-Mar-30 10:31N 37°44' W 025°40'0 0.0
2015-Mar-30 09:32N 37°44' W 025°40'0 0.0
2015-Mar-30 08:31N 37°44' W 025°40'0 0.0
2015-Mar-30 07:31N 37°44' W 025°40'2 1.6
2015-Mar-30 06:34N 37°43' W 025°40'7 6.6
2015-Mar-30 05:33N 37°39' W 025°47'7 6.6
2015-Mar-30 04:33N 37°36' W 025°54'6 6.2
2015-Mar-30 03:33N 37°32' W 026°00'6 5.7
2015-Mar-30 02:33N 37°29' W 026°06'6 5.6
2015-Mar-30 01:33N 37°26' W 026°12'6 5.7
2015-Mar-30 00:33N 37°23' W 026°18'6 6.1
2015-Mar-29 23:33N 37°19' W 026°25'7 6.5
2015-Mar-29 22:33N 37°15' W 026°31'7 6.6
2015-Mar-29 21:34N 37°12' W 026°38'7 6.5
2015-Mar-29 20:33N 37°08' W 026°45'7 6.8
2015-Mar-29 19:30N 37°04' W 026°53'7 7.0
2015-Mar-29 18:33N 37°01' W 026°60'7 7.5
2015-Mar-29 17:33N 36°57' W 027°08'7 7.4
2015-Mar-29 16:33N 36°53' W 027°15'7 7.1
2015-Mar-29 15:33N 36°49' W 027°23'7 7.3
2015-Mar-29 14:33N 36°45' W 027°30'9 7.5
2015-Mar-29 13:25N 36°40' W 027°39'15 7.2
2015-Mar-29 11:20N 36°32' W 027°55'6 6.9
2015-Mar-29 10:27N 36°28' W 028°01'28 6.4
2015-Mar-29 06:00N 36°12' W 028°30'36 8.0 120 / 151033.210.8 1.016.7 18.2
2015-Mar-29 01:31N 35°53' W 029°08'143 7.3
2015-Mar-28 06:00N 34°30' W 031°30'89 7.4 160 / 211027.110.8 1.518.4 18.1
2015-Mar-27 18:00N 33°42' W 033°00'155 7.4 270 / 51022.3 5.4 4.016.4 20.0
2015-Mar-26 21:00N 32°18' W 035°36'94 7.8 200 / 271020.710.8 3.019.3 19.8
2015-Mar-26 09:00N 31°24' W 037°06'87 7.2 160 / 241021.310.8 1.518.1 20.2
2015-Mar-25 21:00N 30°36' W 038°30'107 8.9 150 / 111023.010.8 1.019.3 20.6
2015-Mar-25 09:00N 29°36' W 040°12'324 9.0 120 / 161024.610.8 1.518.5 21.1
2015-Mar-23 21:00N 26°30' W 045°12'109 9.1 130 / 131024.110.8 1.521.8 22.8
2015-Mar-23 09:00N 25°24' W 046°48'109 9.1 140 / 141022.410.8 1.522.0 23.7
2015-Mar-22 21:00N 24°18' W 048°24'   130 / 131019.610.8 1.523.3 23.8
Track history (hours):
 
Tides and Currents Weather Stations Pressure Air Temp Water Temp Dewpoint Dewpoint Depression Visibility Wind Speed Wind Dir Waves Ship Positions

Oceanographic research ship Pelagia (Netherlands)

Detailed information on ship capabilities available from University of Delaware's Ocean Information Center and ARCUS's ALIAS (Arctic Logistics Information and Support) project.

Last reported at 2015-Apr-01 00:33 UTC. Time now 2015-Apr-01 01:15 UTC.
Position N 37°44' W 025°40'.

Length 66 m; beam 13 m.

Type: Other ship. MMSI: 244925000.

Date/timePositionNaut miles runAvg speedWind from/ knotsBaromVisibWave heightAir tempDewpointWater temp
2015-Apr-01 00:33N 37°44' W 025°40'0 0.0
2015-Mar-31 23:32N 37°44' W 025°40'0 0.0
2015-Mar-31 22:32N 37°44' W 025°40'0 0.0
2015-Mar-31 21:29N 37°44' W 025°40'0 0.0
2015-Mar-31 20:32N 37°44' W 025°40'0 0.0
2015-Mar-31 19:32N 37°44' W 025°40'0 0.0
2015-Mar-31 18:32N 37°44' W 025°40'0 0.0
2015-Mar-31 17:32N 37°44' W 025°40'0 0.0
2015-Mar-31 16:32N 37°44' W 025°40'0 0.0
2015-Mar-31 15:32N 37°44' W 025°40'0 0.0
2015-Mar-31 14:32N 37°44' W 025°40'0 0.0
2015-Mar-31 13:32N 37°44' W 025°40'0 0.0
2015-Mar-31 12:32N 37°44' W 025°40'0 0.0
2015-Mar-31 11:32N 37°44' W 025°40'0 0.0
2015-Mar-31 10:32N 37°44' W 025°40'0 0.0
2015-Mar-31 09:32N 37°44' W 025°40'0 0.0
2015-Mar-31 08:32N 37°44' W 025°40'0 0.0
2015-Mar-31 07:32N 37°44' W 025°40'0 0.0
2015-Mar-31 06:32N 37°44' W 025°40'0 0.0
2015-Mar-31 05:32N 37°44' W 025°40'0 0.0
2015-Mar-31 04:32N 37°44' W 025°40'0 0.0
2015-Mar-31 03:32N 37°44' W 025°40'0 0.0
2015-Mar-31 02:32N 37°44' W 025°40'0 0.0
2015-Mar-31 01:32N 37°44' W 025°40'0 0.0
2015-Mar-31 00:32N 37°44' W 025°40'0 0.0
2015-Mar-30 23:32N 37°44' W 025°40'0 0.0
2015-Mar-30 22:32N 37°44' W 025°40'0 0.0
2015-Mar-30 21:32N 37°44' W 025°40'0 0.0
2015-Mar-30 20:32N 37°44' W 025°40'0 0.0
2015-Mar-30 19:32N 37°44' W 025°40'0 0.0
2015-Mar-30 18:32N 37°44' W 025°40'0 0.0
2015-Mar-30 17:32N 37°44' W 025°40'0 0.0
2015-Mar-30 16:32N 37°44' W 025°40'0 0.0
2015-Mar-30 15:31N 37°44' W 025°40'0 0.0
2015-Mar-30 14:32N 37°44' W 025°40'0 0.0
2015-Mar-30 13:32N 37°44' W 025°40'0 0.0
2015-Mar-30 12:31N 37°44' W 025°40'0 0.0
2015-Mar-30 11:32N 37°44' W 025°40'0 0.0
2015-Mar-30 10:31N 37°44' W 025°40'0 0.0
2015-Mar-30 09:32N 37°44' W 025°40'0 0.0
2015-Mar-30 08:31N 37°44' W 025°40'0 0.0
2015-Mar-30 07:31N 37°44' W 025°40'2 1.6
2015-Mar-30 06:34N 37°43' W 025°40'7 6.6
2015-Mar-30 05:33N 37°39' W 025°47'7 6.6
2015-Mar-30 04:33N 37°36' W 025°54'6 6.2
2015-Mar-30 03:33N 37°32' W 026°00'6 5.7
2015-Mar-30 02:33N 37°29' W 026°06'6 5.6
2015-Mar-30 01:33N 37°26' W 026°12'6 5.7
2015-Mar-30 00:33N 37°23' W 026°18'6 6.1
2015-Mar-29 23:33N 37°19' W 026°25'7 6.5
2015-Mar-29 22:33N 37°15' W 026°31'7 6.6
2015-Mar-29 21:34N 37°12' W 026°38'7 6.5
2015-Mar-29 20:33N 37°08' W 026°45'7 6.8
2015-Mar-29 19:30N 37°04' W 026°53'7 7.0
2015-Mar-29 18:33N 37°01' W 026°60'7 7.5
2015-Mar-29 17:33N 36°57' W 027°08'7 7.4
2015-Mar-29 16:33N 36°53' W 027°15'7 7.1
2015-Mar-29 15:33N 36°49' W 027°23'7 7.3
2015-Mar-29 14:33N 36°45' W 027°30'9 7.5
2015-Mar-29 13:25N 36°40' W 027°39'15 7.2
2015-Mar-29 11:20N 36°32' W 027°55'6 6.9
2015-Mar-29 10:27N 36°28' W 028°01'28 6.4
2015-Mar-29 06:00N 36°12' W 028°30'36 8.0 120 / 151033.210.8 1.016.7 18.2
2015-Mar-29 01:31N 35°53' W 029°08'143 7.3
2015-Mar-28 06:00N 34°30' W 031°30'89 7.4 160 / 211027.110.8 1.518.4 18.1
2015-Mar-27 18:00N 33°42' W 033°00'155 7.4 270 / 51022.3 5.4 4.016.4 20.0
2015-Mar-26 21:00N 32°18' W 035°36'94 7.8 200 / 271020.710.8 3.019.3 19.8
2015-Mar-26 09:00N 31°24' W 037°06'87 7.2 160 / 241021.310.8 1.518.1 20.2
2015-Mar-25 21:00N 30°36' W 038°30'107 8.9 150 / 111023.010.8 1.019.3 20.6
2015-Mar-25 09:00N 29°36' W 040°12'324 9.0 120 / 161024.610.8 1.518.5 21.1
2015-Mar-23 21:00N 26°30' W 045°12'109 9.1 130 / 131024.110.8 1.521.8 22.8
2015-Mar-23 09:00N 25°24' W 046°48'109 9.1 140 / 141022.410.8 1.522.0 23.7
2015-Mar-22 21:00N 24°18' W 048°24'   130 / 131019.610.8 1.523.3 23.8

Dump ship's entire track history